| time (UTC) | temp C | wind direction | speed KPH | gust KPH | rain 1hr cm | rain 24hr cm | rain mn cm | humidity % | barometer mb |
| 20260903050015 | 25 | 309 | 3.2 | 8.0 | 0.00 | 0.15 | 0.08 | 89 | 1010.8 |
| 20260903044513 | 25 | 309 | 4.8 | 8.0 | 0.00 | 0.15 | 0.08 | 88 | 1011.0 |
| 20260903043014 | 25 | 303 | 1.6 | 8.0 | 0.00 | 0.15 | 0.08 | 88 | 1011.3 |
| 20260903041509 | 25 | 317 | 1.6 | 8.0 | 0.00 | 0.15 | 0.08 | 88 | 1011.6 |
| 20260903040011 | 25 | 355 | 0.0 | 8.0 | 0.00 | 0.15 | 0.08 | 88 | 1011.6 |
| 20260903034507 | 24 | 321 | 4.8 | 11.3 | 0.00 | 0.15 | 0.08 | 89 | 1011.7 |
| 20260903033013 | 24 | 330 | 9.7 | 12.9 | 0.00 | 0.15 | 0.08 | 89 | 1011.5 |
| 20260903031505 | 24 | 340 | 3.2 | 11.3 | 0.00 | 0.15 | 0.08 | 90 | 1011.5 |
| 20260903030100 | 24 | 336 | 4.8 | 11.3 | 0.03 | 0.15 | 0.08 | 90 | 1011.3 |
| 20260903024558 | 24 | 345 | 4.8 | 11.3 | 0.05 | 0.15 | 0.08 | 89 | 1011.2 |
| 20260903023054 | 24 | 348 | 3.2 | 11.3 | 0.05 | 0.15 | 0.08 | 89 | 1010.8 |
| 20260903021547 | 25 | 360 | 8.0 | 11.3 | 0.08 | 0.15 | 0.08 | 89 | 1010.5 |
| 20260903020050 | 25 | 257 | 0.0 | 1.6 | 0.08 | 0.15 | 0.05 | 89 | 1010.3 |
| 20260903014602 | 25 | 278 | 0.0 | 1.6 | 0.08 | 0.13 | 0.05 | 89 | 1010.0 |
| 20260903013038 | 25 | 336 | 1.6 | 8.0 | 0.05 | 0.10 | 0.03 | 89 | 1009.8 |
| 20260903011535 | 25 | 333 | 3.2 | 9.7 | 0.05 | 0.08 | 0.00 | 90 | 1009.4 |
| 20260903010034 | 26 | 11 | 0.0 | 11.3 | 0.05 | 0.05 | 0.05 | 89 | 1009.3 |
| 20260903004530 | 26 | 346 | 1.6 | 14.5 | 0.05 | 0.05 | 0.05 | 86 | 1009.2 |
| 20260903003029 | 27 | 189 | 0.0 | 8.0 | 0.05 | 0.05 | 0.05 | 83 | 1009.4 |
| 20260903001526 | 28 | 342 | 1.6 | 22.5 | 0.03 | 0.03 | 0.03 | 78 | 1009.8 |
| 20260903000026 | 30 | 114 | 1.6 | 20.9 | 0.00 | 0.00 | 0.00 | 74 | 1009.4 |
| 20260902234525 | 30 | 156 | 4.8 | 12.9 | 0.00 | 0.00 | 0.00 | 73 | 1008.7 |
| 20260902233024 | 30 | 199 | 11.3 | 16.1 | 0.00 | 0.00 | 0.00 | 72 | 1008.8 |
| 20260902231654 | 30 | 213 | 12.9 | 17.7 | 0.00 | 0.00 | 0.00 | 71 | 1008.5 |
| 20260902230059 | 31 | 185 | 6.4 | 14.5 | 0.00 | 0.00 | 0.00 | 69 | 1008.5 |
| 20260902224555 | 31 | 242 | 6.4 | 19.3 | 0.00 | 0.00 | 0.00 | 69 | 1008.1 |
| 20260902223048 | 31 | 196 | 8.0 | 19.3 | 0.00 | 0.00 | 0.00 | 68 | 1008.0 |
| 20260902221548 | 31 | 205 | 14.5 | 29.0 | 0.00 | 0.00 | 0.00 | 65 | 1008.0 |
| 20260902220049 | 33 | 212 | 12.9 | 29.0 | 0.00 | 0.00 | 0.00 | 61 | 1007.9 |
| 20260902214548 | 35 | 360 | 14.5 | 24.1 | 0.00 | 0.00 | 0.00 | 56 | 1007.7 |
| 20260902213041 | 35 | 267 | 11.3 | 19.3 | 0.00 | 0.00 | 0.00 | 54 | 1007.8 |
| 20260902211538 | 35 | 219 | 4.8 | 17.7 | 0.00 | 0.00 | 0.00 | 53 | 1008.0 |
| 20260902210036 | 35 | 225 | 6.4 | 16.1 | 0.00 | 0.00 | 0.00 | 55 | 1008.3 |
| 20260902204533 | 34 | 213 | 8.0 | 17.7 | 0.00 | 0.00 | 0.00 | 57 | 1008.6 |
| 20260902203029 | 34 | 232 | 9.7 | 19.3 | 0.00 | 0.00 | 0.00 | 57 | 1009.0 |
| 20260902201527 | 33 | 169 | 11.3 | 19.3 | 0.00 | 0.00 | 0.00 | 57 | 1009.2 |
| 20260902200027 | 33 | 318 | 8.0 | 14.5 | 0.00 | 0.00 | 0.00 | 59 | 1009.4 |
| 20260902194537 | 33 | 360 | 6.4 | 16.1 | 0.00 | 0.00 | 0.00 | 61 | 1009.5 |
| 20260902193024 | 32 | 209 | 6.4 | 20.9 | 0.00 | 0.00 | 0.00 | 62 | 1009.8 |
| 20260902191523 | 32 | 159 | 9.7 | 19.3 | 0.00 | 0.00 | 0.00 | 63 | 1010.0 |
| 20260902190023 | 32 | 164 | 8.0 | 19.3 | 0.00 | 0.00 | 0.00 | 61 | 1010.1 |
| 20260902184551 | 32 | 101 | 11.3 | 24.1 | 0.00 | 0.00 | 0.00 | 63 | 1010.3 |
| 20260902183050 | 32 | 145 | 16.1 | 24.1 | 0.00 | 0.00 | 0.00 | 64 | 1010.5 |
| 20260902181547 | 32 | 161 | 12.9 | 24.1 | 0.00 | 0.00 | 0.00 | 64 | 1010.6 |
| 20260902180049 | 32 | 190 | 16.1 | 25.7 | 0.00 | 0.00 | 0.00 | 67 | 1010.5 |
| 20260902174545 | 32 | 190 | 16.1 | 33.8 | 0.00 | 0.00 | 0.00 | 68 | 1010.4 |
| 20260902173045 | 32 | 153 | 19.3 | 35.4 | 0.00 | 0.00 | 0.00 | 64 | 1010.1 |
| 20260902171546 | 34 | 142 | 17.7 | 29.0 | 0.00 | 0.00 | 0.00 | 60 | 1009.7 |
| 20260902170015 | 35 | 360 | 11.3 | 24.1 | 0.00 | 0.00 | 0.00 | 53 | 1009.2 |
| 20260902164506 | 35 | 207 | 4.8 | 16.1 | 0.00 | 0.00 | 0.00 | 55 | 1009.3 |
| 20260902163103 | 34 | 360 | 11.3 | 20.9 | 0.00 | 0.00 | 0.00 | 58 | 1009.2 |
| 20260902161557 | 33 | 225 | 1.6 | 12.9 | 0.00 | 0.00 | 0.00 | 59 | 1009.3 |
| 20260902160108 | 33 | 317 | 8.0 | 12.9 | 0.00 | 0.00 | 0.00 | 61 | 1009.4 |
| 20260902154548 | 32 | 208 | 4.8 | 14.5 | 0.00 | 0.00 | 0.00 | 66 | 1009.7 |
| 20260902153046 | 31 | 261 | 8.0 | 11.3 | 0.00 | 0.00 | 0.00 | 69 | 1009.9 |
| 20260902151546 | 31 | 268 | 3.2 | 14.5 | 0.00 | 0.00 | 0.00 | 70 | 1010.2 |
| 20260902150036 | 30 | 278 | 3.2 | 11.3 | 0.00 | 0.00 | 0.00 | 73 | 1010.5 |
| 20260902144531 | 29 | 282 | 1.6 | 9.7 | 0.00 | 0.00 | 0.00 | 75 | 1010.7 |
| 20260902143028 | 28 | 313 | 1.6 | 14.5 | 0.00 | 0.00 | 0.00 | 77 | 1010.9 |
| 20260902141536 | 28 | 306 | 4.8 | 12.9 | 0.00 | 0.00 | 0.00 | 78 | 1011.1 |
| 20260902140027 | 27 | 327 | 8.0 | 12.9 | 0.00 | 0.00 | 0.00 | 79 | 1011.4 |
| 20260902134535 | 27 | 321 | 9.7 | 16.1 | 0.00 | 0.00 | 0.00 | 81 | 1011.5 |
| 20260902133021 | -17 | 0.0 | 0.0 | 0.00 | 0.00 | 0.00 | 1011.7 | ||
| 20260902131516 | -17 | 0.0 | 0.0 | 0.00 | 0.00 | 0.00 | 1011.9 | ||
| 20260902130012 | -17 | 0.0 | 0.0 | 0.00 | 0.00 | 0.00 | 1012.2 | ||
| 20260902124509 | -17 | 0.0 | 0.0 | 0.00 | 0.00 | 0.00 | 1012.4 | ||
| 20260902123001 | -17 | 0.0 | 0.0 | 0.00 | 0.00 | 0.00 | 1012.5 | ||
| 20260902121557 | -17 | 0.0 | 0.0 | 0.00 | 0.00 | 0.00 | 1012.7 | ||
| 20260902120051 | 23 | 319 | 6.4 | 11.3 | 0.00 | 0.00 | 0.00 | 100 | 1012.7 |
| 20260902114550 | 25 | 313 | 8.0 | 12.9 | 0.00 | 0.00 | 0.00 | 89 | 1012.5 |
| 20260902113050 | 24 | 313 | 9.7 | 14.5 | 0.00 | 0.00 | 0.00 | 89 | 1012.3 |
| 20260902111543 | 24 | 321 | 9.7 | 12.9 | 0.00 | 0.00 | 0.00 | 89 | 1012.0 |
| 20260902110043 | 24 | 14 | 6.4 | 14.5 | 0.00 | 0.00 | 0.00 | 90 | 1011.9 |
| 20260902104604 | 24 | 9 | 6.4 | 12.9 | 0.00 | 0.00 | 0.00 | 91 | 1012.1 |
| 20260902103039 | 24 | 26 | 0.0 | 12.9 | 0.00 | 0.00 | 0.00 | 92 | 1012.1 |
| 20260902101539 | 24 | 91 | 12.9 | 24.1 | 0.00 | 0.00 | 0.00 | 92 | 1012.1 |
| 20260902100047 | 24 | 121 | 14.5 | 32.2 | 0.00 | 0.00 | 0.00 | 91 | 1011.7 |
| 20260902094534 | 25 | 110 | 17.7 | 54.7 | 0.00 | 0.00 | 0.00 | 84 | 1011.8 |
| 20260902093030 | 26 | 110 | 0.0 | 0.0 | 0.00 | 0.00 | 0.00 | 86 | 1010.7 |
| 20260902091527 | 26 | 314 | 0.0 | 0.0 | 0.00 | 0.00 | 0.00 | 86 | 1010.2 |
| 20260902090026 | 27 | 313 | 0.0 | 0.0 | 0.00 | 0.00 | 0.00 | 86 | 1010.4 |
| 20260902084524 | 27 | 330 | 0.0 | 0.0 | 0.00 | 0.00 | 0.00 | 86 | 1010.5 |
| 20260902083021 | 27 | 332 | 0.0 | 0.0 | 0.00 | 0.00 | 0.00 | 86 | 1010.6 |
| 20260902081520 | 27 | 309 | 0.0 | 0.0 | 0.00 | 0.00 | 0.00 | 86 | 1010.7 |
| 20260902080022 | 27 | 306 | 0.0 | 0.0 | 0.00 | 0.00 | 0.00 | 86 | 1011.1 |
| 20260902074519 | 27 | 305 | 0.0 | 0.0 | 0.00 | 0.00 | 0.00 | 86 | 1010.9 |
| 20260902073016 | 27 | 308 | 0.0 | 0.0 | 0.00 | 0.00 | 0.00 | 86 | 1010.7 |
| 20260902071526 | 27 | 308 | 0.0 | 0.0 | 0.00 | 0.00 | 0.00 | 86 | 1010.6 |
| 20260902070013 | 27 | 308 | 0.0 | 0.0 | 0.00 | 0.00 | 0.00 | 85 | 1010.7 |
| 20260902064514 | 27 | 304 | 0.0 | 8.0 | 0.00 | 0.00 | 0.00 | 85 | 1010.8 |
| 20260902063008 | 27 | 304 | 0.0 | 0.0 | 0.00 | 0.00 | 0.00 | 84 | 1010.9 |
| 20260902061507 | 27 | 313 | 0.0 | 0.0 | 0.00 | 0.00 | 0.00 | 84 | 1011.0 |
| 20260902060005 | 28 | 313 | 0.0 | 9.7 | 0.00 | 0.00 | 0.00 | 83 | 1011.0 |
| 20260902054503 | 28 | 321 | 0.0 | 0.0 | 0.00 | 0.00 | 0.00 | 83 | 1011.3 |
| 20260902053102 | 28 | 329 | 0.0 | 8.0 | 0.00 | 0.00 | 0.00 | 83 | 1011.8 |
| 20260902051609 | 28 | 349 | 0.0 | 0.0 | 0.00 | 0.00 | 0.00 | 83 | 1012.0 |